Time;durP1;ratioP1;P1;durP2;ratioP2;P2;SDS_P1;SDS_P2;PMS_P1;PMS_P2;Temp;Humidity;BMP_temperature;BMP_pressure;BME280_temperature;BME280_humidity;BME280_pressure;Samples;Min_cycle;Max_cycle;Signal;HPM_P1;HPM_P2
2023/07/23 00:01:45;;;;;;;6.15;4.40;;;;;;;20.21;50.58;100470.81;5039367;28;20698;-60
2023/07/23 00:04:11;;;;;;;5.00;4.10;;;;;;;20.23;50.60;100473.34;5042343;28;20106;-60
2023/07/23 00:06:38;;;;;;;5.45;3.92;;;;;;;20.26;50.55;100468.78;5037766;28;20048;-60
2023/07/23 00:09:04;;;;;;;6.78;4.30;;;;;;;20.29;50.40;100462.53;5036449;28;20036;-60
2023/07/23 00:11:29;;;;;;;5.55;3.85;;;;;;;20.27;50.34;100456.53;5037552;28;20383;-60
2023/07/23 00:13:55;;;;;;;5.70;3.95;;;;;;;20.25;50.62;100461.84;5035620;28;20119;-60
2023/07/23 00:16:21;;;;;;;5.45;3.35;;;;;;;20.23;50.79;100458.44;5019977;28;20101;-60
2023/07/23 00:18:46;;;;;;;5.45;3.67;;;;;;;20.22;50.73;100454.13;5044571;28;20042;-62
2023/07/23 00:21:12;;;;;;;4.38;3.63;;;;;;;20.23;50.85;100452.34;5045453;28;20060;-65
2023/07/23 00:23:37;;;;;;;5.80;4.00;;;;;;;20.24;50.85;100440.94;5037790;28;20073;-64
2023/07/23 00:26:03;;;;;;;5.50;4.20;;;;;;;20.24;50.66;100439.16;5038481;28;20659;-62
2023/07/23 00:28:28;;;;;;;6.82;4.85;;;;;;;20.25;50.78;100435.59;5032747;28;20040;-63
2023/07/23 00:30:54;;;;;;;7.38;4.43;;;;;;;20.32;50.43;100434.34;5033939;28;20453;-60
2023/07/23 00:33:23;;;;;;;8.57;4.10;;;;;;;20.34;50.75;100437.72;5038605;28;20045;-60
2023/07/23 00:35:48;;;;;;;7.93;4.68;;;;;;;20.37;50.72;100429.69;5039064;28;20499;-60
2023/07/23 00:38:13;;;;;;;6.25;4.68;;;;;;;20.38;50.80;100425.28;5035787;28;20115;-60
2023/07/23 00:40:39;;;;;;;5.93;4.47;;;;;;;20.39;50.35;100419.97;5034254;28;20052;-64
2023/07/23 00:43:04;;;;;;;5.10;3.72;;;;;;;20.38;50.19;100407.75;5035968;28;20041;-66
2023/07/23 00:45:29;;;;;;;8.93;4.15;;;;;;;20.41;50.04;100409.38;5034025;28;20049;-64
2023/07/23 00:47:55;;;;;;;7.05;4.43;;;;;;;20.39;49.97;100396.34;5033613;28;20064;-64
2023/07/23 00:50:20;;;;;;;7.47;4.82;;;;;;;20.42;49.62;100387.44;5038482;28;20035;-64
2023/07/23 00:52:46;;;;;;;6.07;4.25;;;;;;;20.43;49.61;100389.97;5033324;28;20025;-64
2023/07/23 00:55:11;;;;;;;6.20;4.40;;;;;;;20.42;49.77;100387.44;5035966;28;20044;-64
2023/07/23 00:57:37;;;;;;;6.25;4.50;;;;;;;20.43;49.89;100386.50;5034251;28;20790;-63
2023/07/23 01:00:05;;;;;;;6.55;4.68;;;;;;;20.45;49.80;100389.91;5034834;28;20748;-59
2023/07/23 01:02:30;;;;;;;6.60;4.63;;;;;;;20.45;50.09;100387.28;5022727;28;20049;-60
2023/07/23 01:04:56;;;;;;;8.00;4.55;;;;;;;20.42;50.05;100387.44;5038033;28;20033;-60
2023/07/23 01:07:24;;;;;;;6.78;4.50;;;;;;;20.43;49.96;100376.84;5033287;28;20033;-62
2023/07/23 01:09:50;;;;;;;10.00;4.38;;;;;;;20.41;50.24;100383.13;5034988;28;20118;-62
2023/07/23 01:12:17;;;;;;;6.38;4.05;;;;;;;20.39;50.54;100385.84;5030024;28;20037;-62
2023/07/23 01:14:43;;;;;;;6.20;4.13;;;;;;;20.35;50.91;100386.06;5036117;28;20033;-61
2023/07/23 01:17:09;;;;;;;7.13;4.88;;;;;;;20.30;51.24;100394.22;5037177;28;20571;-63
2023/07/23 01:19:38;;;;;;;6.93;4.15;;;;;;;20.27;51.84;100401.41;5034602;28;20500;-64
2023/07/23 01:22:09;;;;;;;6.53;4.78;;;;;;;20.23;52.25;100399.84;5039165;28;20047;-62
2023/07/23 01:24:35;;;;;;;6.45;4.00;;;;;;;20.18;52.29;100400.94;5041319;28;20060;-62
2023/07/23 01:27:01;;;;;;;5.07;4.30;;;;;;;20.13;52.41;100392.47;5039578;28;20078;-64
2023/07/23 01:29:27;;;;;;;5.13;4.40;;;;;;;20.12;52.53;100400.44;5030655;28;20037;-64
2023/07/23 01:31:52;;;;;;;6.03;4.15;;;;;;;20.07;52.73;100398.06;5032570;28;20426;-64
2023/07/23 01:34:18;;;;;;;6.63;4.10;;;;;;;20.08;52.66;100398.91;5032178;28;20144;-62
2023/07/23 01:36:45;;;;;;;6.30;4.45;;;;;;;20.04;52.41;100389.50;5033925;28;20055;-62
2023/07/23 01:39:10;;;;;;;5.95;4.10;;;;;;;20.03;52.24;100380.78;5034884;28;20432;-63
2023/07/23 01:41:36;;;;;;;6.15;4.55;;;;;;;20.02;52.37;100381.72;5034312;28;20053;-63
2023/07/23 01:44:02;;;;;;;5.88;4.35;;;;;;;20.00;52.48;100374.84;5034543;28;20047;-63
2023/07/23 01:46:27;;;;;;;7.40;4.22;;;;;;;19.97;52.63;100370.63;5037023;28;20020;-62
2023/07/23 01:48:52;;;;;;;6.07;4.50;;;;;;;19.94;52.67;100378.66;5031760;28;20041;-62
2023/07/23 01:51:18;;;;;;;5.78;3.92;;;;;;;19.94;52.55;100370.78;5034188;28;20042;-61
2023/07/23 01:53:43;;;;;;;5.82;3.80;;;;;;;19.91;52.87;100372.72;5041485;28;20051;-60
2023/07/23 01:56:08;;;;;;;6.15;4.40;;;;;;;19.86;52.96;100365.06;5037559;28;20116;-61
2023/07/23 01:58:34;;;;;;;6.88;4.50;;;;;;;19.87;52.28;100355.44;5040333;28;20814;-61
2023/07/23 02:01:00;;;;;;;6.60;4.35;;;;;;;19.85;52.63;100359.94;5036894;28;20042;-62
2023/07/23 02:03:26;;;;;;;8.57;5.03;;;;;;;19.85;52.56;100350.28;5041607;28;20030;-60
2023/07/23 02:06:00;;;;;;;7.95;4.70;;;;;;;19.80;52.65;100349.66;5040905;28;20037;-64
2023/07/23 02:08:26;;;;;;;6.90;4.53;;;;;;;19.77;52.83;100355.03;5050030;28;20037;-64
2023/07/23 02:10:57;;;;;;;6.45;4.40;;;;;;;19.73;52.94;100350.91;5039854;28;21151;-64
2023/07/23 02:13:22;;;;;;;6.15;4.05;;;;;;;19.71;53.03;100354.53;5041828;28;20417;-64
2023/07/23 02:15:47;;;;;;;9.38;4.72;;;;;;;19.66;53.12;100346.03;5037042;28;20037;-60
2023/07/23 02:18:14;;;;;;;8.38;4.90;;;;;;;19.70;53.00;100350.19;5041818;28;20057;-60
2023/07/23 02:20:42;;;;;;;6.60;4.32;;;;;;;19.72;52.99;100341.31;5042958;28;20140;-60
2023/07/23 02:23:07;;;;;;;8.50;4.00;;;;;;;19.76;52.93;100336.78;5042552;28;20738;-60
2023/07/23 02:25:36;;;;;;;6.13;4.30;;;;;;;19.78;52.90;100340.16;5046741;28;20533;-60
2023/07/23 02:28:02;;;;;;;5.65;3.78;;;;;;;19.78;52.87;100334.91;5051220;28;20044;-60
2023/07/23 02:30:28;;;;;;;7.85;4.25;;;;;;;19.78;52.88;100330.50;5039376;28;20078;-61
2023/07/23 02:32:53;;;;;;;6.35;4.30;;;;;;;19.83;52.73;100327.69;5040198;28;20125;-61
2023/07/23 02:35:19;;;;;;;6.68;4.30;;;;;;;19.80;53.29;100330.47;5038324;28;20632;-61
2023/07/23 02:37:44;;;;;;;6.97;4.30;;;;;;;19.82;53.13;100326.00;5040675;28;20039;-63
2023/07/23 02:40:10;;;;;;;5.80;4.18;;;;;;;19.83;52.83;100325.88;5040176;28;20056;-63
2023/07/23 02:42:35;;;;;;;5.28;3.92;;;;;;;19.85;52.94;100317.97;5037170;28;20881;-64
2023/07/23 02:45:00;;;;;;;5.72;4.18;;;;;;;19.88;52.69;100315.16;5040156;28;20037;-65
2023/07/23 02:47:26;;;;;;;5.15;3.80;;;;;;;19.82;53.09;100313.72;5037941;28;20127;-64
2023/07/23 02:49:51;;;;;;;7.65;4.43;;;;;;;19.86;52.61;100317.03;5043671;28;20120;-64
2023/07/23 02:52:16;;;;;;;6.13;3.90;;;;;;;19.87;52.81;100311.69;5043983;28;20049;-64
2023/07/23 02:54:42;;;;;;;5.88;3.85;;;;;;;19.85;52.79;100315.34;5041757;28;20041;-64
2023/07/23 02:57:07;;;;;;;7.80;3.92;;;;;;;19.84;51.86;100306.63;5038128;28;20033;-62
2023/07/23 02:59:33;;;;;;;6.82;4.13;;;;;;;19.86;52.70;100302.13;5041367;28;20510;-62
2023/07/23 03:01:58;;;;;;;6.35;3.83;;;;;;;19.84;52.69;100301.38;5038629;28;20120;-64
2023/07/23 03:04:26;;;;;;;6.18;4.20;;;;;;;19.85;52.59;100310.09;5039126;28;20513;-64
2023/07/23 03:06:53;;;;;;;6.97;3.95;;;;;;;19.83;52.72;100302.28;5034092;28;20033;-64
2023/07/23 03:09:18;;;;;;;8.95;4.65;;;;;;;19.80;52.71;100304.25;5040098;28;20048;-64
2023/07/23 03:11:43;;;;;;;5.60;3.47;;;;;;;19.78;52.80;100309.53;5035001;28;20049;-62
2023/07/23 03:14:09;;;;;;;6.45;3.85;;;;;;;19.78;52.60;100304.28;5036174;28;20029;-64
2023/07/23 03:16:34;;;;;;;8.73;3.65;;;;;;;19.78;52.76;100309.53;5038106;28;20795;-62
2023/07/23 03:18:59;;;;;;;7.43;3.92;;;;;;;19.75;52.68;100301.81;5040206;28;20049;-64
2023/07/23 03:21:25;;;;;;;4.03;3.47;;;;;;;19.77;52.77;100304.38;5038182;28;20045;-65
2023/07/23 03:23:50;;;;;;;5.93;3.40;;;;;;;19.76;52.40;100303.53;5035748;28;20099;-64
2023/07/23 03:26:15;;;;;;;5.35;3.92;;;;;;;19.77;52.19;100294.72;5032298;28;20038;-64
2023/07/23 03:28:41;;;;;;;6.28;3.60;;;;;;;19.78;52.31;100295.56;5028707;28;20033;-64
2023/07/23 03:31:06;;;;;;;6.88;3.45;;;;;;;19.79;52.01;100289.44;5036692;28;20041;-64
2023/07/23 03:33:31;;;;;;;5.82;3.58;;;;;;;19.78;51.95;100285.94;5033174;28;20051;-64
2023/07/23 03:35:57;;;;;;;8.55;4.13;;;;;;;19.77;52.11;100292.09;5036587;28;20045;-62
2023/07/23 03:38:22;;;;;;;6.20;3.97;;;;;;;19.75;51.88;100288.72;5037596;28;20847;-62
2023/07/23 03:40:48;;;;;;;5.97;3.47;;;;;;;19.74;52.14;100294.88;5018062;28;20171;-60
2023/07/23 03:43:13;;;;;;;7.18;3.72;;;;;;;19.72;52.08;100294.13;5037161;28;20033;-64
2023/07/23 03:45:38;;;;;;;5.97;3.60;;;;;;;19.71;52.17;100294.22;5035217;28;20041;-64
2023/07/23 03:48:04;;;;;;;7.55;3.58;;;;;;;19.68;52.45;100303.06;5039590;28;20094;-65
2023/07/23 03:50:30;;;;;;;5.03;3.15;;;;;;;19.68;52.55;100302.25;5037780;28;20049;-63
2023/07/23 03:52:55;;;;;;;9.07;4.00;;;;;;;19.70;52.52;100305.63;5037482;28;20108;-63
2023/07/23 03:55:21;;;;;;;5.88;3.42;;;;;;;19.69;52.44;100296.06;5035001;28;20467;-63
2023/07/23 03:57:47;;;;;;;7.15;3.83;;;;;;;19.71;52.46;100299.47;5034298;28;20753;-62
2023/07/23 04:00:13;;;;;;;5.78;3.65;;;;;;;19.72;52.49;100294.13;5050446;28;20095;-60
2023/07/23 04:02:39;;;;;;;8.88;3.70;;;;;;;19.79;52.19;100290.28;5034293;28;20989;-60
2023/07/23 04:05:05;;;;;;;5.32;3.90;;;;;;;19.82;52.07;100284.88;5029862;28;20064;-60
2023/07/23 04:07:30;;;;;;;5.22;3.50;;;;;;;19.83;52.33;100291.78;5037641;28;20367;-60
2023/07/23 04:09:55;;;;;;;9.23;3.88;;;;;;;19.85;52.18;100287.34;5036401;28;20068;-60
2023/07/23 04:12:22;;;;;;;6.13;3.90;;;;;;;19.85;52.12;100294.34;5027156;28;20123;-63
2023/07/23 04:14:48;;;;;;;4.90;3.40;;;;;;;19.85;52.46;100292.59;5034750;28;20035;-63
2023/07/23 04:17:15;;;;;;;4.40;3.45;;;;;;;19.86;52.57;100296.88;5039232;28;20437;-63
2023/07/23 04:19:40;;;;;;;5.35;3.40;;;;;;;19.88;52.28;100286.31;5032952;28;20120;-63
2023/07/23 04:22:06;;;;;;;5.68;3.38;;;;;;;19.88;52.49;100279.31;5040718;28;20033;-63
2023/07/23 04:24:31;;;;;;;3.92;3.50;;;;;;;19.91;52.39;100281.75;5032914;28;20549;-63
2023/07/23 04:26:57;;;;;;;4.57;3.00;;;;;;;19.93;52.22;100293.00;5038178;28;20033;-63
2023/07/23 04:29:22;;;;;;;5.40;3.33;;;;;;;19.95;52.13;100285.03;5032793;28;20144;-62
2023/07/23 04:31:48;;;;;;;5.65;3.28;;;;;;;19.96;52.38;100295.47;5035533;28;20597;-63
2023/07/23 04:34:13;;;;;;;7.90;4.00;;;;;;;19.99;52.08;100287.44;5032229;28;20103;-63
2023/07/23 04:36:38;;;;;;;8.90;3.25;;;;;;;20.00;51.93;100280.41;5036113;28;20581;-63
2023/07/23 04:39:04;;;;;;;6.70;3.20;;;;;;;20.01;52.32;100289.94;5036184;28;20889;-63
2023/07/23 04:41:30;;;;;;;7.60;3.50;;;;;;;19.99;52.96;100297.91;5034991;28;20118;-62
2023/07/23 04:43:55;;;;;;;5.28;3.58;;;;;;;19.98;52.57;100287.50;5036362;28;20111;-61
2023/07/23 04:46:21;;;;;;;5.55;3.33;;;;;;;20.00;52.15;100283.88;5037146;28;20033;-60
2023/07/23 04:48:46;;;;;;;4.43;3.33;;;;;;;19.99;52.57;100295.28;5038708;28;20120;-60
2023/07/23 04:51:11;;;;;;;4.75;3.35;;;;;;;20.01;52.53;100289.94;5041822;28;20036;-61
2023/07/23 04:53:37;;;;;;;7.78;3.33;;;;;;;20.01;52.32;100287.31;5034732;28;20041;-64
2023/07/23 04:56:04;;;;;;;7.80;3.58;;;;;;;20.04;52.19;100281.91;5034016;28;20116;-63
2023/07/23 04:58:31;;;;;;;5.68;3.53;;;;;;;20.08;52.25;100284.31;5037577;28;20048;-63
2023/07/23 05:00:58;;;;;;;12.45;3.17;;;;;;;20.11;52.65;100285.91;5030856;28;20037;-63
2023/07/23 05:03:24;;;;;;;5.20;3.28;;;;;;;20.15;52.26;100288.28;5035434;28;20112;-62
2023/07/23 05:05:50;;;;;;;6.82;3.40;;;;;;;20.15;52.22;100290.91;5030842;28;20128;-63
2023/07/23 05:08:19;;;;;;;7.43;3.25;;;;;;;20.20;52.03;100287.16;5035079;28;20040;-62
2023/07/23 05:10:45;;;;;;;3.92;3.25;;;;;;;20.21;51.97;100273.97;5037602;28;20060;-62
2023/07/23 05:13:12;;;;;;;6.82;3.20;;;;;;;20.25;52.18;100274.63;5032336;28;20044;-62
2023/07/23 05:15:37;;;;;;;4.95;3.03;;;;;;;20.30;51.81;100272.63;5035117;28;20723;-62
2023/07/23 05:18:03;;;;;;;7.82;3.35;;;;;;;20.31;52.14;100271.66;5035977;28;20037;-65
2023/07/23 05:20:28;;;;;;;7.95;3.22;;;;;;;20.30;52.07;100272.63;5032404;28;20094;-60
2023/07/23 05:22:55;;;;;;;6.95;2.72;;;;;;;20.33;52.33;100270.66;5033568;28;20045;-64
2023/07/23 05:25:20;;;;;;;5.05;3.50;;;;;;;20.31;52.38;100276.91;5035602;28;20671;-63
2023/07/23 05:27:46;;;;;;;5.88;3.60;;;;;;;20.31;52.32;100272.50;5039106;28;20037;-62
2023/07/23 05:30:11;;;;;;;4.40;3.17;;;;;;;20.30;52.65;100275.25;5035801;28;20037;-64
2023/07/23 05:32:36;;;;;;;5.28;2.88;;;;;;;20.32;52.49;100274.22;5035133;28;20033;-64
2023/07/23 05:35:02;;;;;;;7.72;3.55;;;;;;;20.33;52.24;100275.91;5040054;28;20653;-62
2023/07/23 05:37:28;;;;;;;6.22;3.22;;;;;;;20.37;52.54;100276.56;5036624;28;20037;-60
2023/07/23 05:39:53;;;;;;;7.22;3.03;;;;;;;20.44;52.21;100272.69;5037060;28;20044;-60
2023/07/23 05:42:20;;;;;;;5.88;3.10;;;;;;;20.50;52.42;100281.06;5035558;28;20044;-60
2023/07/23 05:44:45;;;;;;;6.50;3.75;;;;;;;20.58;52.44;100276.22;5039811;28;20037;-61
2023/07/23 05:47:11;;;;;;;4.38;3.25;;;;;;;20.74;52.58;100264.84;5038023;28;20126;-61
2023/07/23 05:49:36;;;;;;;5.38;3.08;;;;;;;20.80;51.92;100270.59;5041173;28;20032;-64
2023/07/23 05:52:02;;;;;;;6.20;3.40;;;;;;;20.99;51.66;100262.47;5040297;28;20482;-64
2023/07/23 05:54:28;;;;;;;5.70;2.53;;;;;;;21.13;51.67;100260.75;5047950;28;20039;-64
2023/07/23 05:56:53;;;;;;;5.55;3.28;;;;;;;21.20;51.54;100254.16;5041412;28;20041;-61
2023/07/23 05:59:19;;;;;;;3.97;3.00;;;;;;;21.20;50.71;100234.91;5040649;28;20032;-61
2023/07/23 06:01:44;;;;;;;3.38;2.88;;;;;;;21.22;51.14;100247.03;5040359;28;20025;-61
2023/07/23 06:04:10;;;;;;;6.50;3.45;;;;;;;21.20;51.17;100248.06;5051630;28;20041;-61
2023/07/23 06:06:35;;;;;;;4.22;2.92;;;;;;;21.24;50.99;100242.53;5037947;28;20732;-60
2023/07/23 06:09:03;;;;;;;5.60;3.33;;;;;;;21.19;51.27;100249.84;5036726;28;20075;-60
2023/07/23 06:11:29;;;;;;;8.02;3.70;;;;;;;21.26;51.57;100258.19;5038735;28;20048;-60
2023/07/23 06:13:54;;;;;;;5.60;2.97;;;;;;;21.26;51.38;100245.06;5035717;28;20025;-60
2023/07/23 06:16:20;;;;;;;6.45;3.13;;;;;;;21.28;52.13;100251.91;5041138;28;20087;-60
2023/07/23 06:18:45;;;;;;;6.28;3.25;;;;;;;21.28;51.35;100246.66;5046252;28;20090;-60
2023/07/23 06:21:11;;;;;;;6.65;3.05;;;;;;;21.28;51.71;100251.91;5044790;28;20064;-60
2023/07/23 06:23:36;;;;;;;3.90;2.55;;;;;;;21.27;51.55;100247.63;5040207;28;20516;-60
2023/07/23 06:26:01;;;;;;;5.38;2.50;;;;;;;21.28;51.49;100246.66;5031666;28;20038;-60
2023/07/23 06:28:27;;;;;;;3.75;2.53;;;;;;;21.33;51.19;100243.75;5035470;28;20021;-60
2023/07/23 06:30:53;;;;;;;5.97;2.60;;;;;;;21.33;51.52;100245.53;5041141;28;20044;-60
2023/07/23 06:33:20;;;;;;;5.10;2.67;;;;;;;21.37;51.26;100254.94;5038287;28;20095;-60
2023/07/23 06:35:46;;;;;;;4.53;2.47;;;;;;;21.39;51.46;100253.06;5038530;28;20090;-60
2023/07/23 06:38:11;;;;;;;3.78;2.53;;;;;;;21.42;51.26;100255.50;5039506;28;20028;-60
2023/07/23 06:40:37;;;;;;;2.85;2.20;;;;;;;21.42;50.90;100240.56;5025877;28;20757;-60
2023/07/23 06:43:02;;;;;;;5.15;2.50;;;;;;;21.46;50.85;100243.88;5023686;28;20049;-64
2023/07/23 06:45:28;;;;;;;5.32;2.70;;;;;;;21.49;50.50;100231.34;5027943;28;20717;-62
2023/07/23 06:47:53;;;;;;;3.38;2.13;;;;;;;21.56;49.91;100226.59;5027689;28;20037;-63
2023/07/23 06:50:19;;;;;;;3.70;2.03;;;;;;;21.62;50.05;100228.84;5023885;28;20029;-62
2023/07/23 06:52:45;;;;;;;3.40;2.17;;;;;;;21.65;50.09;100237.41;5027056;28;20950;-64
2023/07/23 06:55:10;;;;;;;3.65;2.20;;;;;;;21.66;49.88;100231.22;5029864;28;20052;-61
2023/07/23 06:57:35;;;;;;;5.18;2.42;;;;;;;21.61;49.63;100225.38;5035864;28;20525;-60
2023/07/23 07:00:01;;;;;;;2.67;2.03;;;;;;;21.58;49.97;100240.53;5040009;28;20052;-60
2023/07/23 07:02:26;;;;;;;5.25;2.20;;;;;;;21.50;49.60;100234.84;5033122;28;20052;-60
2023/07/23 07:04:51;;;;;;;5.43;2.22;;;;;;;21.46;50.09;100254.38;5036049;28;20029;-63
2023/07/23 07:07:17;;;;;;;3.75;1.98;;;;;;;21.38;50.04;100246.94;5032308;28;20059;-63
2023/07/23 07:09:42;;;;;;;3.40;1.83;;;;;;;21.32;49.92;100247.31;5034443;28;20049;-63
2023/07/23 07:12:08;;;;;;;6.35;2.50;;;;;;;21.06;53.15;100304.09;5028516;28;20036;-63
2023/07/23 07:14:33;;;;;;;3.08;2.38;;;;;;;20.75;55.13;100337.47;5030727;28;20049;-63
2023/07/23 07:16:59;;;;;;;3.50;1.92;;;;;;;20.55;56.93;100367.44;5039294;28;20144;-63
2023/07/23 07:19:24;;;;;;;3.58;2.20;;;;;;;20.32;59.21;100388.88;5033413;28;20120;-63
2023/07/23 07:21:50;;;;;;;3.10;2.25;;;;;;;20.09;60.30;100393.59;5036936;28;20037;-62
2023/07/23 07:24:17;;;;;;;4.25;2.20;;;;;;;19.88;61.75;100412.22;5040430;28;20037;-64
2023/07/23 07:26:43;;;;;;;6.55;2.38;;;;;;;19.69;63.08;100396.56;5031775;28;20155;-63
2023/07/23 07:29:08;;;;;;;3.20;2.22;;;;;;;19.54;64.17;100398.19;5030061;28;20039;-62
2023/07/23 07:31:34;;;;;;;5.38;2.47;;;;;;;19.47;65.60;100383.69;5033531;28;20591;-62
2023/07/23 07:33:59;;;;;;;5.40;2.55;;;;;;;19.39;66.27;100385.00;5034990;28;20857;-62
2023/07/23 07:36:25;;;;;;;5.28;2.58;;;;;;;19.28;66.29;100372.44;5031814;28;20043;-64
2023/07/23 07:38:50;;;;;;;5.03;2.58;;;;;;;19.14;67.41;100369.69;5034106;28;20554;-62
2023/07/23 07:41:15;;;;;;;5.07;2.88;;;;;;;19.09;69.07;100366.41;5027215;28;20029;-63
2023/07/23 07:43:41;;;;;;;4.60;2.50;;;;;;;19.01;69.51;100366.81;5029350;28;20044;-61
2023/07/23 07:46:08;;;;;;;4.72;2.60;;;;;;;18.97;68.52;100343.44;5033502;28;20094;-62
2023/07/23 07:48:35;;;;;;;3.80;2.75;;;;;;;18.93;69.82;100353.25;5032695;28;20557;-62
2023/07/23 07:51:02;;;;;;;4.60;2.75;;;;;;;18.87;69.88;100352.69;5038675;28;20041;-62
2023/07/23 07:53:28;;;;;;;5.63;2.38;;;;;;;18.86;69.93;100359.69;5030712;28;20163;-62
2023/07/23 07:55:53;;;;;;;3.75;2.72;;;;;;;18.83;70.96;100354.56;5039144;28;20051;-62
2023/07/23 07:58:24;;;;;;;3.78;2.65;;;;;;;18.79;70.49;100350.41;5038372;28;20129;-64
2023/07/23 08:00:52;;;;;;;5.72;2.80;;;;;;;18.77;70.69;100348.78;5041643;28;20067;-61
2023/07/23 08:03:17;;;;;;;4.50;2.80;;;;;;;18.70;69.89;100344.78;5034040;28;20030;-62
2023/07/23 08:05:43;;;;;;;3.97;2.70;;;;;;;18.70;71.78;100368.34;5031300;28;20041;-62
2023/07/23 08:08:13;;;;;;;9.23;2.80;;;;;;;18.70;72.16;100370.97;5040131;28;20031;-64
2023/07/23 08:10:39;;;;;;;4.40;3.03;;;;;;;18.73;73.01;100373.44;5038178;28;20095;-65
2023/07/23 08:13:05;;;;;;;5.30;3.08;;;;;;;18.72;74.61;100377.81;5027584;28;20037;-65
2023/07/23 08:15:31;;;;;;;5.65;3.10;;;;;;;18.72;74.44;100369.13;5026540;28;20119;-62
2023/07/23 08:17:58;;;;;;;7.45;3.05;;;;;;;18.69;76.15;100377.13;5031681;28;20056;-62
2023/07/23 08:20:24;;;;;;;5.20;3.10;;;;;;;18.70;76.31;100360.50;5035646;28;20088;-62
2023/07/23 08:22:50;;;;;;;4.75;3.38;;;;;;;18.72;76.55;100372.59;5031795;28;20044;-62
2023/07/23 08:25:15;;;;;;;6.00;3.50;;;;;;;18.73;77.08;100363.78;5030640;28;20045;-62
2023/07/23 08:27:43;;;;;;;6.30;3.25;;;;;;;18.74;76.48;100368.13;5031876;28;20076;-63
2023/07/23 08:30:09;;;;;;;6.15;3.25;;;;;;;18.77;77.33;100383.69;5030822;28;20049;-62
2023/07/23 08:32:35;;;;;;;6.32;3.22;;;;;;;18.81;78.13;100385.25;5034577;28;20056;-63
2023/07/23 08:35:00;;;;;;;5.75;3.40;;;;;;;18.75;78.41;100388.16;5037268;28;20037;-63
2023/07/23 08:37:26;;;;;;;6.28;3.30;;;;;;;18.70;80.01;100389.28;5034017;28;20029;-65
2023/07/23 08:39:52;;;;;;;5.00;3.85;;;;;;;18.63;83.13;100387.88;5034254;28;20251;-64
2023/07/23 08:42:47;;;;;;;6.28;3.63;;;;;;;18.57;83.10;100401.25;5030094;28;20033;-63
2023/07/23 08:45:22;;;;;;;5.47;3.60;;;;;;;18.45;83.91;100397.44;5028507;28;20655;-64
2023/07/23 08:47:47;;;;;;;;;;;;;;;18.40;86.38;100399.44;5029167;28;20088;-64
2023/07/23 08:50:14;;;;;;;6.85;4.00;;;;;;;18.37;86.34;100400.38;5034600;28;20473;-64
2023/07/23 08:52:43;;;;;;;5.38;4.00;;;;;;;18.40;86.13;100400.25;5035641;28;20953;-65
2023/07/23 08:55:10;;;;;;;6.25;4.30;;;;;;;18.40;86.52;100402.03;5027795;28;20033;-65
2023/07/23 08:57:36;;;;;;;5.68;3.83;;;;;;;18.39;87.62;100393.34;5027770;28;20425;-65
2023/07/23 09:00:02;;;;;;;7.00;4.25;;;;;;;18.33;85.55;100391.00;5030376;28;20037;-65
2023/07/23 09:02:28;;;;;;;5.93;2.88;;;;;;;18.30;83.88;100390.28;5028005;28;20047;-65
2023/07/23 09:04:54;;;;;;;6.55;3.53;;;;;;;18.30;85.36;100385.91;5042759;28;20775;-65
2023/07/23 09:07:19;;;;;;;4.93;3.58;;;;;;;18.30;85.45;100385.06;5028142;28;20052;-65
2023/07/23 09:09:49;;;;;;;6.57;3.83;;;;;;;18.32;84.90;100384.06;5030284;28;20059;-65
2023/07/23 09:12:15;;;;;;;4.95;3.47;;;;;;;18.38;86.25;100386.41;5027038;28;20067;-65
2023/07/23 09:14:42;;;;;;;6.10;3.33;;;;;;;18.35;84.98;100391.78;5034680;28;20047;-65
2023/07/23 09:17:17;;;;;;;6.13;3.25;;;;;;;18.40;85.55;100388.97;5029542;28;20029;-65
2023/07/23 09:19:42;;;;;;;5.03;2.78;;;;;;;18.45;85.22;100389.59;5032717;28;20041;-65
2023/07/23 09:22:09;;;;;;;6.25;3.15;;;;;;;18.54;86.58;100391.78;5032492;28;20049;-64
2023/07/23 09:24:34;;;;;;;8.70;4.32;;;;;;;18.66;87.45;100382.50;5029127;28;20526;-65
2023/07/23 09:27:01;;;;;;;4.80;3.30;;;;;;;18.72;86.56;100380.44;5034575;28;20171;-65
2023/07/23 09:29:35;;;;;;;4.85;3.30;;;;;;;18.71;86.54;100375.25;5031840;28;20394;-65
2023/07/23 09:32:01;;;;;;;6.63;3.90;;;;;;;18.80;86.09;100375.69;5031266;28;20024;-65
2023/07/23 09:34:26;;;;;;;5.25;3.70;;;;;;;18.95;87.19;100371.50;5030908;28;20036;-65
2023/07/23 09:36:53;;;;;;;6.55;3.75;;;;;;;19.12;86.98;100368.88;5030381;28;20048;-65
2023/07/23 09:39:19;;;;;;;6.28;3.78;;;;;;;19.21;86.81;100378.06;5032598;28;20037;-65
2023/07/23 09:41:45;;;;;;;5.28;3.90;;;;;;;19.33;85.22;100380.06;5032274;28;20041;-65
2023/07/23 09:44:12;;;;;;;7.70;3.75;;;;;;;19.47;85.73;100388.94;5031207;28;20044;-64
2023/07/23 09:46:39;;;;;;;5.78;3.22;;;;;;;19.56;84.20;100385.84;5031876;28;20045;-65
2023/07/23 09:49:05;;;;;;;4.07;3.15;;;;;;;19.62;84.31;100382.91;5031212;28;20040;-65
2023/07/23 09:51:34;;;;;;;7.45;3.70;;;;;;;19.63;82.22;100376.75;5032343;28;20036;-65
2023/07/23 09:54:00;;;;;;;4.60;2.97;;;;;;;19.88;82.07;100378.97;5037751;28;20116;-65
2023/07/23 09:56:27;;;;;;;4.38;2.70;;;;;;;19.95;82.73;100384.72;5036988;28;20040;-65
2023/07/23 09:58:54;;;;;;;5.20;2.88;;;;;;;19.99;80.99;100386.28;5034705;28;20082;-65
2023/07/23 10:01:20;;;;;;;6.22;2.70;;;;;;;19.95;81.18;100388.19;5026330;28;20049;-65
2023/07/23 10:03:47;;;;;;;7.18;3.10;;;;;;;20.01;81.03;100389.66;5034104;28;20452;-65
2023/07/23 10:06:20;;;;;;;4.13;2.90;;;;;;;20.14;81.09;100390.69;5024451;28;20067;-65
2023/07/23 10:08:47;;;;;;;3.85;2.80;;;;;;;20.17;79.30;100394.03;5031481;28;20091;-65
2023/07/23 10:11:14;;;;;;;5.57;3.08;;;;;;;20.28;79.91;100392.56;5028905;28;20143;-66
2023/07/23 10:13:41;;;;;;;4.07;3.05;;;;;;;20.24;80.05;100399.78;5031717;28;20513;-64
2023/07/23 10:16:40;;;;;;;3.63;2.92;;;;;;;20.02;80.84;100409.72;5032554;28;20049;-64
2023/07/23 10:19:08;;;;;;;7.30;3.10;;;;;;;19.76;81.55;100400.56;5033728;28;20048;-63
2023/07/23 10:21:35;;;;;;;3.97;2.75;;;;;;;19.54;82.76;100406.06;5030751;28;20045;-66
2023/07/23 10:24:01;;;;;;;3.97;2.78;;;;;;;19.26;83.21;100418.00;5030268;28;20033;-67
2023/07/23 10:26:41;;;;;;;5.03;2.80;;;;;;;18.98;84.63;100423.72;5036688;28;20041;-64
2023/07/23 10:29:06;;;;;;;4.85;2.85;;;;;;;18.84;85.48;100428.75;5030791;28;20545;-64
2023/07/23 10:31:32;;;;;;;4.30;2.53;;;;;;;18.75;85.30;100421.34;5034161;28;20112;-66
2023/07/23 10:33:57;;;;;;;3.63;2.55;;;;;;;18.68;86.26;100422.53;5038810;28;20119;-64
2023/07/23 10:36:23;;;;;;;4.20;2.80;;;;;;;18.64;86.15;100416.59;5013677;28;20041;-62
2023/07/23 10:39:15;;;;;;;6.05;2.85;;;;;;;18.69;87.22;100424.25;5037374;28;20032;-62
2023/07/23 10:42:07;;;;;;;5.40;3.08;;;;;;;18.73;86.82;100416.16;5034956;28;20240;-63
2023/07/23 10:44:32;;;;;;;3.92;2.85;;;;;;;18.81;87.18;100413.19;5034893;28;20041;-63
2023/07/23 10:46:59;;;;;;;5.20;2.85;;;;;;;18.87;87.12;100405.94;5035515;28;20039;-63
2023/07/23 10:49:29;;;;;;;3.50;2.30;;;;;;;18.96;85.86;100412.50;5033951;28;20072;-65
2023/07/23 10:52:14;;;;;;;4.53;2.53;;;;;;;19.06;84.07;100401.47;5035489;28;20165;-64
2023/07/23 10:54:39;;;;;;;3.50;2.72;;;;;;;19.22;84.27;100405.97;5038059;28;20118;-62
2023/07/23 10:57:06;;;;;;;6.10;2.67;;;;;;;19.32;82.71;100401.97;5038985;28;20041;-64
2023/07/23 10:59:31;;;;;;;2.90;2.47;;;;;;;19.47;82.13;100404.66;5030870;28;20945;-63
2023/07/23 11:01:57;;;;;;;4.03;2.92;;;;;;;19.65;82.56;100402.88;5034495;28;20029;-64
2023/07/23 11:04:26;;;;;;;4.97;3.03;;;;;;;19.88;81.95;100396.50;5033143;28;20055;-63
2023/07/23 11:06:57;;;;;;;3.97;2.40;;;;;;;19.99;81.26;100402.88;5032685;28;20036;-62
2023/07/23 11:09:37;;;;;;;4.05;2.13;;;;;;;20.13;78.71;100399.50;5034710;28;20982;-63
2023/07/23 11:12:05;;;;;;;3.88;2.38;;;;;;;20.21;75.54;100385.97;5033712;28;20043;-64
2023/07/23 11:14:31;;;;;;;3.20;1.90;;;;;;;20.27;76.97;100404.88;5038282;28;20037;-63
2023/07/23 11:17:00;;;;;;;3.70;2.47;;;;;;;20.22;74.53;100392.91;5031549;28;20035;-62
2023/07/23 11:19:27;;;;;;;2.80;2.28;;;;;;;20.25;74.58;100385.72;5032700;28;20681;-62
2023/07/23 11:21:57;;;;;;;2.50;2.03;;;;;;;20.31;73.65;100385.38;5031195;28;20054;-63